createdAt,value
2023-03-02T00:00:59.154Z,1018.48
2023-03-02T00:01:59.141Z,1018.50
2023-03-02T00:02:59.140Z,1018.50
2023-03-02T00:03:59.365Z,1018.49
2023-03-02T00:04:59.116Z,1018.55
2023-03-02T00:05:59.125Z,1018.55
2023-03-02T00:06:59.108Z,1018.63
2023-03-02T00:07:59.128Z,1018.60
2023-03-02T00:08:59.087Z,1018.54
2023-03-02T00:09:59.100Z,1018.60
2023-03-02T00:10:59.155Z,1018.64
2023-03-02T00:11:59.067Z,1018.62
2023-03-02T00:12:59.095Z,1018.61
2023-03-02T00:13:59.081Z,1018.63
2023-03-02T00:14:59.071Z,1018.66
2023-03-02T00:15:59.143Z,1018.68
2023-03-02T00:16:59.073Z,1018.66
2023-03-02T00:17:59.045Z,1018.66
2023-03-02T00:18:59.050Z,1018.66
2023-03-02T00:19:59.022Z,1018.69
2023-03-02T00:20:59.018Z,1018.67
2023-03-02T00:21:59.017Z,1018.67
2023-03-02T00:22:59.015Z,1018.68
2023-03-02T00:23:59.051Z,1018.69
2023-03-02T00:24:59.000Z,1018.68
2023-03-02T00:25:58.995Z,1018.70
2023-03-02T00:26:59.013Z,1018.70
2023-03-02T00:27:58.985Z,1018.69
2023-03-02T00:28:58.986Z,1018.73
2023-03-02T00:29:58.964Z,1018.76
2023-03-02T00:30:59.081Z,1018.75
2023-03-02T00:31:59.039Z,1018.74
2023-03-02T00:32:58.989Z,1018.78
2023-03-02T00:33:58.964Z,1018.73
2023-03-02T00:34:58.939Z,1018.75
2023-03-02T00:35:58.975Z,1018.70
2023-03-02T00:36:58.918Z,1018.71
2023-03-02T00:37:58.907Z,1018.70
2023-03-02T00:38:58.902Z,1018.69
2023-03-02T00:39:58.909Z,1018.69
2023-03-02T00:40:58.905Z,1018.70
2023-03-02T00:41:58.899Z,1018.68
2023-03-02T00:42:58.888Z,1018.66
2023-03-02T00:43:58.872Z,1018.66
2023-03-02T00:44:58.885Z,1018.66
2023-03-02T00:45:58.882Z,1018.67
2023-03-02T00:46:58.892Z,1018.70
2023-03-02T00:47:58.868Z,1018.69
2023-03-02T00:48:58.848Z,1018.71
2023-03-02T00:49:58.821Z,1018.71
2023-03-02T00:50:58.821Z,1018.71
2023-03-02T00:51:58.831Z,1018.74
2023-03-02T00:52:58.828Z,1018.70
2023-03-02T00:53:58.818Z,1018.68
2023-03-02T00:54:58.813Z,1018.70
2023-03-02T00:55:58.796Z,1018.70
2023-03-02T00:56:58.808Z,1018.71
2023-03-02T00:57:58.821Z,1018.68
2023-03-02T00:58:58.806Z,1018.64
2023-03-02T00:59:58.775Z,1018.65
2023-03-02T01:00:58.784Z,1018.65
2023-03-02T01:01:58.802Z,1018.60
2023-03-02T01:02:58.882Z,1018.60
2023-03-02T01:03:58.757Z,1018.61
2023-03-02T01:04:58.744Z,1018.57
2023-03-02T01:05:58.744Z,1018.59
2023-03-02T01:06:58.724Z,1018.60
2023-03-02T01:07:58.714Z,1018.60
2023-03-02T01:08:58.717Z,1018.59
2023-03-02T01:09:58.702Z,1018.59
2023-03-02T01:10:58.696Z,1018.59
2023-03-02T01:11:58.702Z,1018.56
2023-03-02T01:12:58.685Z,1018.57
2023-03-02T01:13:58.691Z,1018.57
2023-03-02T01:14:58.707Z,1018.51
2023-03-02T01:15:58.741Z,1018.53
2023-03-02T01:16:58.668Z,1018.52
2023-03-02T01:17:58.661Z,1018.51
2023-03-02T01:18:58.657Z,1018.44
2023-03-02T01:19:58.638Z,1018.43
2023-03-02T01:20:58.633Z,1018.43
2023-03-02T01:21:58.632Z,1018.42
2023-03-02T01:22:58.624Z,1018.43
2023-03-02T01:23:58.637Z,1018.43
2023-03-02T01:24:58.617Z,1018.42
2023-03-02T01:25:58.615Z,1018.43
2023-03-02T01:26:58.604Z,1018.38
2023-03-02T01:27:58.598Z,1018.37
2023-03-02T01:28:58.584Z,1018.35
2023-03-02T01:29:58.590Z,1018.39
2023-03-02T01:30:58.627Z,1018.32
2023-03-02T01:31:58.663Z,1018.34
2023-03-02T01:32:58.582Z,1018.31
2023-03-02T01:33:58.567Z,1018.33
2023-03-02T01:34:58.550Z,1018.31
2023-03-02T01:35:58.591Z,1018.29
2023-03-02T01:36:58.545Z,1018.24
2023-03-02T01:37:58.534Z,1018.19
2023-03-02T01:38:58.535Z,1018.22
2023-03-02T01:39:58.527Z,1018.21
2023-03-02T01:40:58.523Z,1018.16
2023-03-02T01:41:58.513Z,1018.16
2023-03-02T01:42:58.516Z,1018.13
2023-03-02T01:43:58.497Z,1018.09
2023-03-02T01:44:58.525Z,1018.11
2023-03-02T01:45:58.493Z,1018.08
2023-03-02T01:46:58.566Z,1018.08
2023-03-02T01:47:58.489Z,1018.04
2023-03-02T01:48:58.472Z,1018.04
2023-03-02T01:49:58.443Z,1017.98
2023-03-02T01:50:58.445Z,1017.97
2023-03-02T01:51:58.449Z,1017.97
2023-03-02T01:52:58.455Z,1017.98
2023-03-02T01:53:58.418Z,1017.94
2023-03-02T01:54:58.428Z,1017.97
2023-03-02T01:55:58.413Z,1017.96
2023-03-02T01:56:58.424Z,1017.95
2023-03-02T01:57:58.418Z,1017.96
2023-03-02T01:58:58.408Z,1017.98
2023-03-02T01:59:58.393Z,1017.96
2023-03-02T02:00:58.431Z,1017.95
2023-03-02T02:01:58.382Z,1017.97
2023-03-02T02:02:58.397Z,1017.95
2023-03-02T02:03:58.439Z,1017.95
2023-03-02T02:04:58.365Z,1017.98
2023-03-02T02:05:58.355Z,1017.89
2023-03-02T02:06:58.370Z,1017.89
2023-03-02T02:07:58.330Z,1017.93
2023-03-02T02:08:58.341Z,1017.89
2023-03-02T02:09:58.333Z,1017.87
2023-03-02T02:10:58.337Z,1017.86
2023-03-02T02:11:58.307Z,1017.87
2023-03-02T02:12:58.302Z,1017.86
2023-03-02T02:13:58.297Z,1017.87
2023-03-02T02:14:58.307Z,1017.87
2023-03-02T02:15:58.275Z,1017.86
2023-03-02T02:16:58.398Z,1017.86
2023-03-02T02:17:58.265Z,1017.91
2023-03-02T02:18:58.298Z,1017.87
2023-03-02T02:19:58.266Z,1017.84
2023-03-02T02:20:58.253Z,1017.89
2023-03-02T02:21:58.270Z,1017.91
2023-03-02T02:22:58.258Z,1017.94
2023-03-02T02:23:58.226Z,1017.92
2023-03-02T02:24:58.222Z,1017.88
2023-03-02T02:25:58.230Z,1017.90
2023-03-02T02:26:58.233Z,1017.90
2023-03-02T02:27:58.212Z,1017.87
2023-03-02T02:28:58.223Z,1017.90
2023-03-02T02:29:58.200Z,1017.87
2023-03-02T02:30:58.197Z,1017.87
2023-03-02T02:31:58.308Z,1017.86
2023-03-02T02:32:58.183Z,1017.85
2023-03-02T02:33:58.168Z,1017.87
2023-03-02T02:34:58.192Z,1017.85
2023-03-02T02:35:58.292Z,1017.82
2023-03-02T02:36:58.161Z,1017.79
2023-03-02T02:37:58.165Z,1017.81
2023-03-02T02:38:58.137Z,1017.77
2023-03-02T02:39:58.117Z,1017.78
2023-03-02T02:40:58.153Z,1017.76
2023-03-02T02:41:58.132Z,1017.76
2023-03-02T02:42:58.118Z,1017.76
2023-03-02T02:43:58.119Z,1017.79
2023-03-02T02:44:58.124Z,1017.76
2023-03-02T02:45:58.160Z,1017.77
2023-03-02T02:46:58.103Z,1017.77
2023-03-02T02:47:58.070Z,1017.74
2023-03-02T02:48:58.101Z,1017.75
2023-03-02T02:49:58.063Z,1017.77
2023-03-02T02:50:58.084Z,1017.80
2023-03-02T02:51:58.060Z,1017.76
2023-03-02T02:52:58.062Z,1017.76
2023-03-02T02:53:58.032Z,1017.76
2023-03-02T02:54:58.050Z,1017.81
2023-03-02T02:55:58.049Z,1017.82
2023-03-02T02:56:58.046Z,1017.80
2023-03-02T02:57:58.003Z,1017.80
2023-03-02T02:58:58.021Z,1017.81
2023-03-02T02:59:58.029Z,1017.78
2023-03-02T03:00:58.062Z,1017.84
2023-03-02T03:01:57.995Z,1017.79
2023-03-02T03:02:57.990Z,1017.81
2023-03-02T03:03:58.019Z,1017.78
2023-03-02T03:04:57.979Z,1017.81
2023-03-02T03:05:57.965Z,1017.79
2023-03-02T03:06:57.983Z,1017.80
2023-03-02T03:07:57.944Z,1017.82
2023-03-02T03:08:57.962Z,1017.81
2023-03-02T03:09:57.992Z,1017.82
2023-03-02T03:10:57.946Z,1017.78
2023-03-02T03:11:57.931Z,1017.78
2023-03-02T03:12:57.941Z,1017.74
2023-03-02T03:13:57.901Z,1017.76
2023-03-02T03:14:57.917Z,1017.75
2023-03-02T03:15:57.891Z,1017.75
2023-03-02T03:16:58.016Z,1017.76
2023-03-02T03:17:57.884Z,1017.77
2023-03-02T03:18:57.869Z,1017.74
2023-03-02T03:19:57.873Z,1017.80
2023-03-02T03:20:57.856Z,1017.76
2023-03-02T03:21:57.859Z,1017.79
2023-03-02T03:22:57.864Z,1017.73
2023-03-02T03:23:57.843Z,1017.74
2023-03-02T03:24:57.842Z,1017.72
2023-03-02T03:25:57.829Z,1017.70
2023-03-02T03:26:57.819Z,1017.72
2023-03-02T03:27:57.805Z,1017.70
2023-03-02T03:28:57.827Z,1017.68
2023-03-02T03:29:57.788Z,1017.66
2023-03-02T03:30:57.879Z,1017.67
2023-03-02T03:31:57.832Z,1017.62
2023-03-02T03:32:57.800Z,1017.65
2023-03-02T03:33:57.774Z,1017.64
2023-03-02T03:35:40.148Z,1017.67
2023-03-02T03:36:40.077Z,1017.66
2023-03-02T03:37:40.073Z,1017.64
2023-03-02T03:38:40.099Z,1017.69
2023-03-02T03:39:40.046Z,1017.66
2023-03-02T03:40:40.067Z,1017.67
2023-03-02T03:41:40.036Z,1017.66
2023-03-02T03:42:40.041Z,1017.72
2023-03-02T03:43:40.015Z,1017.71
2023-03-02T03:44:40.038Z,1017.67
2023-03-02T03:45:40.014Z,1017.68
2023-03-02T03:46:40.043Z,1017.68
2023-03-02T03:47:40.033Z,1017.67
2023-03-02T03:48:40.002Z,1017.65
2023-03-02T03:49:39.986Z,1017.66
2023-03-02T03:50:39.988Z,1017.64
2023-03-02T03:51:39.967Z,1017.64
2023-03-02T03:52:39.968Z,1017.63
2023-03-02T03:53:39.966Z,1017.63
2023-03-02T03:54:40.001Z,1017.65
2023-03-02T03:55:39.962Z,1017.66
2023-03-02T03:56:39.952Z,1017.66
2023-03-02T03:57:39.967Z,1017.64
2023-03-02T03:58:40.026Z,1017.66
2023-03-02T03:59:39.913Z,1017.62
2023-03-02T04:00:39.912Z,1017.69
2023-03-02T04:01:39.971Z,1017.62
2023-03-02T04:02:39.950Z,1017.66
2023-03-02T04:03:39.883Z,1017.71
2023-03-02T04:04:39.894Z,1017.72
2023-03-02T04:05:39.874Z,1017.69
2023-03-02T04:06:39.885Z,1017.70
2023-03-02T04:07:39.871Z,1017.70
2023-03-02T04:08:39.875Z,1017.66
2023-03-02T04:09:39.860Z,1017.65
2023-03-02T04:10:39.875Z,1017.64
2023-03-02T04:11:39.837Z,1017.61
2023-03-02T04:12:39.851Z,1017.62
2023-03-02T04:13:39.815Z,1017.61
2023-03-02T04:14:39.821Z,1017.59
2023-03-02T04:15:39.861Z,1017.62
2023-03-02T04:16:39.806Z,1017.61
2023-03-02T04:17:39.815Z,1017.62
2023-03-02T04:18:39.804Z,1017.66
2023-03-02T04:19:39.784Z,1017.71
2023-03-02T04:20:39.786Z,1017.66
2023-03-02T04:21:39.772Z,1017.65
2023-03-02T04:22:39.758Z,1017.64
2023-03-02T04:23:39.759Z,1017.66
2023-03-02T04:24:39.770Z,1017.67
2023-03-02T04:25:39.744Z,1017.66
2023-03-02T04:26:39.772Z,1017.64
2023-03-02T04:27:39.747Z,1017.61
2023-03-02T04:28:39.733Z,1017.57
2023-03-02T04:29:39.720Z,1017.61
2023-03-02T04:30:39.720Z,1017.60
2023-03-02T04:31:39.716Z,1017.60
2023-03-02T04:32:39.712Z,1017.62
2023-03-02T04:33:39.702Z,1017.63
2023-03-02T04:34:39.688Z,1017.62
2023-03-02T04:35:39.782Z,1017.62
2023-03-02T04:36:39.705Z,1017.57
2023-03-02T04:37:39.686Z,1017.62
2023-03-02T04:38:39.680Z,1017.59
2023-03-02T04:39:39.676Z,1017.59
2023-03-02T04:40:39.665Z,1017.62
2023-03-02T04:41:39.649Z,1017.60
2023-03-02T04:42:39.661Z,1017.65
2023-03-02T04:43:39.638Z,1017.60
2023-03-02T04:44:39.629Z,1017.62
2023-03-02T04:45:39.626Z,1017.58
2023-03-02T04:46:39.694Z,1017.57
2023-03-02T04:47:39.609Z,1017.60
2023-03-02T04:48:39.608Z,1017.56
2023-03-02T04:49:39.610Z,1017.58
2023-03-02T04:50:39.586Z,1017.60
2023-03-02T04:51:39.582Z,1017.58
2023-03-02T04:52:39.579Z,1017.57
2023-03-02T04:53:39.596Z,1017.56
2023-03-02T04:54:39.565Z,1017.54
2023-03-02T04:55:39.575Z,1017.55
2023-03-02T04:56:39.563Z,1017.57
2023-03-02T04:57:39.562Z,1017.54
2023-03-02T04:58:39.575Z,1017.56
2023-03-02T04:59:39.545Z,1017.56
2023-03-02T05:00:39.536Z,1017.55
2023-03-02T05:01:39.535Z,1017.55
2023-03-02T05:02:39.635Z,1017.53
2023-03-02T05:03:39.505Z,1017.54
2023-03-02T05:04:39.509Z,1017.53
2023-03-02T05:05:39.505Z,1017.49
2023-03-02T05:06:39.486Z,1017.47
2023-03-02T05:07:39.491Z,1017.46
2023-03-02T05:08:39.477Z,1017.44
2023-03-02T05:09:39.491Z,1017.50
2023-03-02T05:10:39.472Z,1017.51
2023-03-02T05:11:39.467Z,1017.50
2023-03-02T05:12:39.457Z,1017.51
2023-03-02T05:13:39.456Z,1017.52
2023-03-02T05:14:39.462Z,1017.52
2023-03-02T05:15:39.442Z,1017.49
2023-03-02T05:16:39.519Z,1017.53
2023-03-02T05:17:39.430Z,1017.52
2023-03-02T05:18:39.401Z,1017.49
2023-03-02T05:19:39.416Z,1017.53
2023-03-02T05:20:39.406Z,1017.51
2023-03-02T05:21:39.435Z,1017.56
2023-03-02T05:22:39.375Z,1017.58
2023-03-02T05:23:39.382Z,1017.57
2023-03-02T05:24:39.369Z,1017.56
2023-03-02T05:25:39.383Z,1017.56
2023-03-02T05:26:39.361Z,1017.59
2023-03-02T05:27:39.359Z,1017.58
2023-03-02T05:28:39.361Z,1017.55
2023-03-02T05:29:39.374Z,1017.54
2023-03-02T05:30:39.369Z,1017.53
2023-03-02T05:31:39.406Z,1017.55
2023-03-02T05:32:39.411Z,1017.57
2023-03-02T05:33:39.334Z,1017.58
2023-03-02T05:34:39.314Z,1017.60
2023-03-02T05:35:39.358Z,1017.61
2023-03-02T05:36:39.283Z,1017.59
2023-03-02T05:37:39.281Z,1017.59
2023-03-02T05:38:39.297Z,1017.56
2023-03-02T05:39:39.286Z,1017.57
2023-03-02T05:40:39.256Z,1017.57
2023-03-02T05:41:39.270Z,1017.59
2023-03-02T05:42:39.242Z,1017.63
2023-03-02T05:43:39.254Z,1017.61
2023-03-02T05:44:39.232Z,1017.61
2023-03-02T05:45:39.242Z,1017.66
2023-03-02T05:46:39.289Z,1017.66
2023-03-02T05:47:39.229Z,1017.68
2023-03-02T05:48:39.239Z,1017.67
2023-03-02T05:49:39.214Z,1017.71
2023-03-02T05:50:39.222Z,1017.69
2023-03-02T05:51:39.193Z,1017.64
2023-03-02T05:52:39.183Z,1017.65
2023-03-02T05:53:39.185Z,1017.67
2023-03-02T05:54:39.176Z,1017.65
2023-03-02T05:55:39.204Z,1017.65
2023-03-02T05:56:39.153Z,1017.69
2023-03-02T05:57:39.154Z,1017.72
2023-03-02T05:58:39.162Z,1017.67
2023-03-02T05:59:39.142Z,1017.68
2023-03-02T06:00:39.134Z,1017.71
2023-03-02T06:01:39.218Z,1017.70
2023-03-02T06:02:39.378Z,1017.69
2023-03-02T06:03:39.126Z,1017.71
2023-03-02T06:04:39.101Z,1017.70
2023-03-02T06:05:39.136Z,1017.70
2023-03-02T06:06:39.699Z,1017.71
2023-03-02T06:07:39.099Z,1017.73
2023-03-02T06:08:39.097Z,1017.70
2023-03-02T06:09:39.091Z,1017.73
2023-03-02T06:10:39.079Z,1017.71
2023-03-02T06:11:39.073Z,1017.70
2023-03-02T06:12:39.050Z,1017.70
2023-03-02T06:13:39.054Z,1017.69
2023-03-02T06:14:39.049Z,1017.72
2023-03-02T06:15:39.056Z,1017.70
2023-03-02T06:16:39.115Z,1017.71
2023-03-02T06:17:39.041Z,1017.73
2023-03-02T06:18:41.365Z,1017.75
2023-03-02T06:19:39.014Z,1017.73
2023-03-02T06:20:39.012Z,1017.73
2023-03-02T06:21:39.006Z,1017.75
2023-03-02T06:22:38.992Z,1017.75
2023-03-02T06:23:39.010Z,1017.74
2023-03-02T06:24:38.990Z,1017.71
2023-03-02T06:25:39.007Z,1017.75
2023-03-02T06:26:38.966Z,1017.76
2023-03-02T06:27:38.973Z,1017.72
2023-03-02T06:28:51.546Z,1017.78
2023-03-02T06:29:38.976Z,1017.82
2023-03-02T06:30:38.958Z,1017.77
2023-03-02T06:31:38.996Z,1017.77
2023-03-02T06:32:39.056Z,1017.75
2023-03-02T06:33:38.950Z,1017.77
2023-03-02T06:34:39.066Z,1017.77
2023-03-02T06:35:39.056Z,1017.78
2023-03-02T06:36:39.021Z,1017.82
2023-03-02T06:37:38.926Z,1017.80
2023-03-02T06:38:38.908Z,1017.78
2023-03-02T06:39:38.916Z,1017.80
2023-03-02T06:40:38.920Z,1017.81
2023-03-02T06:41:38.914Z,1017.85
2023-03-02T06:42:38.885Z,1017.85
2023-03-02T06:43:38.908Z,1017.83
2023-03-02T06:44:38.950Z,1017.84
2023-03-02T06:45:38.943Z,1017.82
2023-03-02T06:46:38.893Z,1017.82
2023-03-02T06:47:38.887Z,1017.82
2023-03-02T06:48:38.863Z,1017.79
2023-03-02T06:49:38.867Z,1017.79
2023-03-02T06:50:38.895Z,1017.80
2023-03-02T06:51:38.855Z,1017.83
2023-03-02T06:52:38.846Z,1017.78
2023-03-02T06:53:38.852Z,1017.81
2023-03-02T06:54:38.819Z,1017.84
2023-03-02T06:55:38.821Z,1017.80
2023-03-02T06:56:40.961Z,1017.85
2023-03-02T06:57:38.822Z,1017.87
2023-03-02T06:58:38.823Z,1017.86
2023-03-02T06:59:38.800Z,1017.91
2023-03-02T07:00:38.792Z,1017.90
2023-03-02T07:01:38.906Z,1017.93
2023-03-02T07:02:38.821Z,1017.95
2023-03-02T07:03:38.843Z,1017.93
2023-03-02T07:04:38.773Z,1017.91
2023-03-02T07:05:38.784Z,1017.94
2023-03-02T07:06:38.859Z,1017.95
2023-03-02T07:07:38.763Z,1017.86
2023-03-02T07:08:38.774Z,1017.88
2023-03-02T07:09:38.757Z,1017.90
2023-03-02T07:10:38.755Z,1017.89
2023-03-02T07:11:38.751Z,1017.87
2023-03-02T07:12:38.752Z,1017.94
2023-03-02T07:13:38.741Z,1017.90
2023-03-02T07:14:38.766Z,1017.89
2023-03-02T07:15:38.711Z,1017.88
2023-03-02T07:16:38.770Z,1017.89
2023-03-02T07:17:38.703Z,1017.91
2023-03-02T07:18:38.710Z,1017.88
2023-03-02T07:19:40.797Z,1017.88
2023-03-02T07:20:38.687Z,1017.92
2023-03-02T07:21:38.691Z,1017.89
2023-03-02T07:22:38.743Z,1017.86
2023-03-02T07:23:38.703Z,1017.89
2023-03-02T07:24:38.682Z,1017.91
2023-03-02T07:25:38.661Z,1017.93
2023-03-02T07:26:38.663Z,1017.90
2023-03-02T07:27:38.665Z,1017.88
2023-03-02T07:28:38.633Z,1017.86
2023-03-02T07:29:38.636Z,1017.83
2023-03-02T07:30:38.671Z,1017.84
2023-03-02T07:31:38.626Z,1017.84
2023-03-02T07:32:38.661Z,1017.85
2023-03-02T07:33:38.623Z,1017.83
2023-03-02T07:34:38.608Z,1017.85
2023-03-02T07:35:38.665Z,1017.86
2023-03-02T07:36:38.607Z,1017.82
2023-03-02T07:37:38.596Z,1017.81
2023-03-02T07:38:38.636Z,1017.82
2023-03-02T07:39:38.585Z,1017.84
2023-03-02T07:40:38.584Z,1017.81
2023-03-02T07:41:38.584Z,1017.82
2023-03-02T07:42:38.572Z,1017.86
2023-03-02T07:43:38.585Z,1017.83
2023-03-02T07:44:38.549Z,1017.80
2023-03-02T07:45:38.553Z,1017.83
2023-03-02T07:46:38.619Z,1017.81
2023-03-02T07:47:38.552Z,1017.83
2023-03-02T07:48:38.546Z,1017.83
2023-03-02T07:49:38.525Z,1017.82
2023-03-02T07:50:38.515Z,1017.84
2023-03-02T07:51:38.529Z,1017.88
2023-03-02T07:52:38.520Z,1017.87
2023-03-02T07:53:38.502Z,1017.86
2023-03-02T07:54:38.597Z,1017.88
2023-03-02T07:55:38.490Z,1017.85
2023-03-02T07:56:38.499Z,1017.82
2023-03-02T07:57:38.492Z,1017.85
2023-03-02T07:58:38.478Z,1017.84
2023-03-02T07:59:38.474Z,1017.86
2023-03-02T08:00:38.465Z,1017.87
2023-03-02T08:01:38.518Z,1017.87
2023-03-02T08:02:38.510Z,1017.86
2023-03-02T08:03:38.458Z,1017.84
2023-03-02T08:04:38.433Z,1017.85
2023-03-02T08:05:38.456Z,1017.86
2023-03-02T08:06:39.942Z,1017.85
2023-03-02T08:07:38.435Z,1017.85
2023-03-02T08:08:38.454Z,1017.86
2023-03-02T08:09:38.425Z,1017.85
2023-03-02T08:10:38.424Z,1017.88
2023-03-02T08:11:38.397Z,1017.88
2023-03-02T08:12:38.387Z,1017.88
2023-03-02T08:13:38.385Z,1017.90
2023-03-02T08:14:38.385Z,1017.89
2023-03-02T08:15:38.376Z,1017.86
2023-03-02T08:16:38.400Z,1017.83
2023-03-02T08:17:38.391Z,1017.88
2023-03-02T08:18:38.353Z,1017.86
2023-03-02T08:19:38.383Z,1017.90
2023-03-02T08:20:38.366Z,1017.88
2023-03-02T08:21:38.339Z,1017.92
2023-03-02T08:22:38.329Z,1017.90
2023-03-02T08:23:38.445Z,1017.94
2023-03-02T08:24:38.323Z,1017.94
2023-03-02T08:25:38.332Z,1017.91
2023-03-02T08:26:38.386Z,1017.90
2023-03-02T08:27:38.302Z,1017.94
2023-03-02T08:28:38.297Z,1017.94
2023-03-02T08:29:38.292Z,1017.94
2023-03-02T08:30:38.282Z,1017.95
2023-03-02T08:31:38.434Z,1017.95
2023-03-02T08:32:38.309Z,1017.97
2023-03-02T08:33:38.296Z,1017.93
2023-03-02T08:34:38.276Z,1017.95
2023-03-02T08:35:38.274Z,1017.94
2023-03-02T08:36:38.276Z,1017.96
2023-03-02T08:37:38.239Z,1017.91
2023-03-02T08:38:38.251Z,1017.89
2023-03-02T08:39:38.249Z,1017.91
2023-03-02T08:40:38.242Z,1017.90
2023-03-02T08:41:38.220Z,1017.87
2023-03-02T08:42:38.241Z,1017.82
2023-03-02T08:43:38.203Z,1017.82
2023-03-02T08:44:38.210Z,1017.85
2023-03-02T08:45:38.203Z,1017.82
2023-03-02T08:46:38.232Z,1017.80
2023-03-02T08:47:38.199Z,1017.79
2023-03-02T08:48:38.176Z,1017.79
2023-03-02T08:49:38.199Z,1017.84
2023-03-02T08:50:38.176Z,1017.81
2023-03-02T08:51:38.167Z,1017.80
2023-03-02T08:52:38.157Z,1017.79
2023-03-02T08:53:38.142Z,1017.76
2023-03-02T08:54:38.210Z,1017.79
2023-03-02T08:55:38.139Z,1017.74
2023-03-02T08:56:38.147Z,1017.81
2023-03-02T08:57:38.116Z,1017.78
2023-03-02T08:58:38.145Z,1017.77
2023-03-02T08:59:38.118Z,1017.78
2023-03-02T09:00:38.132Z,1017.75
2023-03-02T09:01:38.412Z,1017.73
2023-03-02T09:02:38.105Z,1017.71
2023-03-02T09:03:38.086Z,1017.69
2023-03-02T09:04:38.159Z,1017.70
2023-03-02T09:05:38.078Z,1017.64
2023-03-02T09:06:38.085Z,1017.68
2023-03-02T09:07:38.071Z,1017.66
2023-03-02T09:08:38.063Z,1017.68
2023-03-02T09:09:38.053Z,1017.70
2023-03-02T09:10:38.064Z,1017.64
2023-03-02T09:11:38.043Z,1017.66
2023-03-02T09:12:38.041Z,1017.64
2023-03-02T09:13:38.032Z,1017.65
2023-03-02T09:14:38.056Z,1017.65
2023-03-02T09:15:38.007Z,1017.68
2023-03-02T09:16:38.160Z,1017.68
2023-03-02T09:17:38.010Z,1017.67
2023-03-02T09:18:38.004Z,1017.63
2023-03-02T09:19:38.005Z,1017.67
2023-03-02T09:20:38.002Z,1017.61
2023-03-02T09:21:37.978Z,1017.62
2023-03-02T09:22:37.973Z,1017.64
2023-03-02T09:23:37.965Z,1017.65
2023-03-02T09:24:37.975Z,1017.64
2023-03-02T09:25:37.953Z,1017.62
2023-03-02T09:26:37.952Z,1017.60
2023-03-02T09:27:37.957Z,1017.62
2023-03-02T09:28:37.989Z,1017.62
2023-03-02T09:29:37.946Z,1017.61
2023-03-02T09:30:37.952Z,1017.58
2023-03-02T09:31:38.661Z,1017.57
2023-03-02T09:32:38.127Z,1017.59
2023-03-02T09:33:37.920Z,1017.55
2023-03-02T09:34:37.916Z,1017.57
2023-03-02T09:35:37.896Z,1017.57
2023-03-02T09:36:37.918Z,1017.60
2023-03-02T09:37:37.948Z,1017.57
2023-03-02T09:38:37.877Z,1017.53
2023-03-02T09:39:37.868Z,1017.51
2023-03-02T09:40:37.893Z,1017.51
2023-03-02T09:41:37.875Z,1017.46
2023-03-02T09:42:43.836Z,1017.49
2023-03-02T09:43:37.866Z,1017.49
2023-03-02T09:44:37.861Z,1017.52
2023-03-02T09:45:37.895Z,1017.53
2023-03-02T09:46:37.885Z,1017.49
2023-03-02T09:47:37.824Z,1017.48
2023-03-02T09:48:37.827Z,1017.50
2023-03-02T09:49:37.813Z,1017.45
2023-03-02T09:50:37.808Z,1017.50
2023-03-02T09:51:37.817Z,1017.46
2023-03-02T09:52:37.824Z,1017.45
2023-03-02T09:53:37.800Z,1017.44
2023-03-02T09:54:38.020Z,1017.46
2023-03-02T09:55:37.771Z,1017.42
2023-03-02T09:56:37.798Z,1017.44
2023-03-02T09:57:37.787Z,1017.40
2023-03-02T09:58:37.781Z,1017.43
2023-03-02T09:59:37.755Z,1017.43
2023-03-02T10:00:37.765Z,1017.45
2023-03-02T10:01:37.755Z,1017.44
2023-03-02T10:02:37.767Z,1017.44
2023-03-02T10:03:37.873Z,1017.41
2023-03-02T10:04:37.796Z,1017.44
2023-03-02T10:05:37.711Z,1017.41
2023-03-02T10:06:37.722Z,1017.42
2023-03-02T10:07:37.712Z,1017.41
2023-03-02T10:08:37.718Z,1017.39
2023-03-02T10:09:37.689Z,1017.40
2023-03-02T10:10:37.700Z,1017.41
2023-03-02T10:11:37.696Z,1017.35
2023-03-02T10:12:37.689Z,1017.37
2023-03-02T10:13:37.678Z,1017.37
2023-03-02T10:14:37.700Z,1017.35
2023-03-02T10:15:37.752Z,1017.37
2023-03-02T10:16:37.890Z,1017.36
2023-03-02T10:17:37.646Z,1017.32
2023-03-02T10:18:37.788Z,1017.34
2023-03-02T10:19:37.639Z,1017.33
2023-03-02T10:20:37.629Z,1017.36
2023-03-02T10:21:37.632Z,1017.33
2023-03-02T10:22:37.639Z,1017.32
2023-03-02T10:23:37.613Z,1017.32
2023-03-02T10:24:37.615Z,1017.35
2023-03-02T10:25:37.602Z,1017.33
2023-03-02T10:26:37.616Z,1017.33
2023-03-02T10:27:37.620Z,1017.28
2023-03-02T10:28:37.583Z,1017.27
2023-03-02T10:29:37.572Z,1017.29
2023-03-02T10:30:37.663Z,1017.27
2023-03-02T10:31:37.557Z,1017.25
2023-03-02T10:32:37.632Z,1017.25
2023-03-02T10:33:37.558Z,1017.27
2023-03-02T10:34:37.569Z,1017.25
2023-03-02T10:35:37.560Z,1017.24
2023-03-02T10:36:37.954Z,1017.26
2023-03-02T10:37:37.575Z,1017.24
2023-03-02T10:38:37.535Z,1017.20
2023-03-02T10:39:37.522Z,1017.24
2023-03-02T10:40:37.513Z,1017.21
2023-03-02T10:41:39.362Z,1017.19
2023-03-02T10:42:37.511Z,1017.17
2023-03-02T10:43:37.485Z,1017.15
2023-03-02T10:44:37.508Z,1017.17
2023-03-02T10:45:37.496Z,1017.13
2023-03-02T10:46:37.564Z,1017.12
2023-03-02T10:47:37.464Z,1017.10
2023-03-02T10:48:40.880Z,1017.11
2023-03-02T10:49:37.450Z,1017.11
2023-03-02T10:50:37.469Z,1017.12
2023-03-02T10:51:37.482Z,1017.08
2023-03-02T10:52:37.454Z,1017.07
2023-03-02T10:53:37.430Z,1017.11
2023-03-02T10:54:37.426Z,1017.05
2023-03-02T10:55:37.421Z,1017.08
2023-03-02T10:56:37.423Z,1017.05
2023-03-02T10:57:37.399Z,1017.02
2023-03-02T10:58:37.415Z,1017.03
2023-03-02T10:59:37.407Z,1017.02
2023-03-02T11:00:37.408Z,1017.03
2023-03-02T11:01:37.415Z,1017.00
2023-03-02T11:02:37.424Z,1017.01
2023-03-02T11:03:37.381Z,1016.99
2023-03-02T11:04:37.469Z,1016.98
2023-03-02T11:05:37.361Z,1017.01
2023-03-02T11:06:37.389Z,1017.00
2023-03-02T11:07:37.361Z,1016.96
2023-03-02T11:08:37.343Z,1016.94
2023-03-02T11:09:37.360Z,1016.91
2023-03-02T11:10:37.373Z,1016.91
2023-03-02T11:11:37.969Z,1016.89
2023-03-02T11:12:37.325Z,1016.95
2023-03-02T11:13:37.330Z,1016.89
2023-03-02T11:14:37.311Z,1016.91
2023-03-02T11:15:37.385Z,1016.91
2023-03-02T11:16:37.316Z,1016.88
2023-03-02T11:17:37.302Z,1016.86
2023-03-02T11:18:37.296Z,1016.89
2023-03-02T11:19:37.287Z,1016.92
2023-03-02T11:20:37.297Z,1016.90
2023-03-02T11:21:37.263Z,1016.88
2023-03-02T11:22:37.284Z,1016.94
2023-03-02T11:23:37.274Z,1016.89
2023-03-02T11:24:37.251Z,1016.87
2023-03-02T11:25:37.258Z,1016.88
2023-03-02T11:26:37.236Z,1016.86
2023-03-02T11:27:37.240Z,1016.88
2023-03-02T11:28:37.244Z,1016.87
2023-03-02T11:29:37.227Z,1016.86
2023-03-02T11:30:37.226Z,1016.83
2023-03-02T11:31:37.574Z,1016.91
2023-03-02T11:32:37.365Z,1016.85
2023-03-02T11:33:37.304Z,1016.86
2023-03-02T11:34:37.193Z,1016.85
2023-03-02T11:35:37.266Z,1016.86
2023-03-02T11:36:37.180Z,1016.83
2023-03-02T11:37:37.180Z,1016.82
2023-03-02T11:38:37.198Z,1016.78
2023-03-02T11:39:41.116Z,1016.77
2023-03-02T11:40:37.176Z,1016.75
2023-03-02T11:41:37.143Z,1016.78
2023-03-02T11:42:37.249Z,1016.78
2023-03-02T11:43:37.138Z,1016.74
2023-03-02T11:44:37.134Z,1016.72
2023-03-02T11:45:37.135Z,1016.67
2023-03-02T11:46:37.231Z,1016.71
2023-03-02T11:47:37.126Z,1016.71
2023-03-02T11:48:37.126Z,1016.70
2023-03-02T11:49:37.101Z,1016.69
2023-03-02T11:50:37.110Z,1016.70
2023-03-02T11:51:39.117Z,1016.70
2023-03-02T11:52:37.096Z,1016.67
2023-03-02T11:53:37.127Z,1016.65
2023-03-02T11:54:37.105Z,1016.70
2023-03-02T11:55:37.072Z,1016.71
2023-03-02T11:56:37.083Z,1016.69
2023-03-02T11:57:38.641Z,1016.66
2023-03-02T11:58:37.051Z,1016.66
2023-03-02T11:59:37.049Z,1016.62
2023-03-02T12:00:37.068Z,1016.64
2023-03-02T12:01:37.157Z,1016.63
2023-03-02T12:02:37.027Z,1016.57
2023-03-02T12:03:37.043Z,1016.60
2023-03-02T12:04:37.037Z,1016.58
2023-03-02T12:05:37.105Z,1016.63
2023-03-02T12:06:37.009Z,1016.61